createdAt,value
2023-01-28T00:07:27.610Z,101728.22
2023-01-28T00:17:30.318Z,101726.16
2023-01-28T00:27:32.857Z,101712.75
2023-01-28T00:37:36.852Z,101712.53
2023-01-28T00:47:39.127Z,101706.56
2023-01-28T00:57:41.293Z,101715.88
2023-01-28T01:07:44.936Z,101719.28
2023-01-28T01:17:48.621Z,101715.06
2023-01-28T01:27:50.825Z,101717.81
2023-01-28T01:37:53.651Z,101727.13
2023-01-28T01:48:01.771Z,101731.38
2023-01-28T01:58:08.176Z,101735.69
2023-01-28T02:08:22.327Z,101727.72
2023-01-28T02:18:24.476Z,101752.78
2023-01-28T02:28:29.678Z,101745.25
2023-01-28T02:38:36.394Z,101758.91
2023-01-28T02:48:39.170Z,101756.38
2023-01-28T02:59:26.692Z,101758.06
2023-01-28T03:09:32.148Z,101755.63
2023-01-28T03:19:52.902Z,101744.44
2023-01-28T03:30:16.156Z,101732.59
2023-01-28T03:40:19.543Z,101741.28
2023-01-28T03:50:22.019Z,101760.06
2023-01-28T04:00:31.054Z,101760.31
2023-01-28T04:10:33.378Z,101762.28
2023-01-28T04:20:49.921Z,101765.19
2023-01-28T04:30:54.539Z,101776.75
2023-01-28T04:41:19.836Z,101782.78
2023-01-28T04:51:22.575Z,101784.97
2023-01-28T05:01:43.446Z,101793.38
2023-01-28T05:11:46.529Z,101776.13
2023-01-28T05:21:50.246Z,101766.59
2023-01-28T05:32:18.686Z,101782.34
2023-01-28T05:42:22.577Z,101793.88
2023-01-28T05:52:30.551Z,101797.72
2023-01-28T06:02:33.349Z,101812.22
2023-01-28T06:12:36.104Z,101827.19
2023-01-28T06:23:01.245Z,101816.84
2023-01-28T06:33:04.435Z,101808.09
2023-01-28T06:43:07.033Z,101808.66
2023-01-28T06:53:11.384Z,101810.91
2023-01-28T07:03:14.538Z,101810.69
2023-01-28T07:13:16.908Z,101815.44
2023-01-28T07:23:19.086Z,101817.59
2023-01-28T07:33:21.587Z,101837.31
2023-01-28T07:43:24.007Z,101817.97
2023-01-28T07:53:26.351Z,101826.56
2023-01-28T08:03:28.728Z,101834.97
2023-01-28T08:13:30.909Z,101850.59
2023-01-28T08:23:34.698Z,101874.41
2023-01-28T08:33:36.958Z,101877.94
2023-01-28T08:43:39.268Z,101891.91
2023-01-28T08:53:41.699Z,101911.63
2023-01-28T09:03:43.845Z,101931.53
2023-01-28T09:13:46.061Z,101944.28
2023-01-28T09:23:48.314Z,101942.00
2023-01-28T09:33:56.629Z,101940.91
2023-01-28T09:44:27.386Z,101952.38
2023-01-28T09:54:44.124Z,101973.31
2023-01-28T10:05:04.635Z,101979.94
2023-01-28T10:15:28.118Z,101965.75
2023-01-28T10:25:31.769Z,101949.75
2023-01-28T10:35:43.836Z,101942.59
2023-01-28T10:45:58.206Z,101939.25
2023-01-28T10:56:01.421Z,101959.41
2023-01-28T11:06:04.068Z,101960.16
2023-01-28T11:16:15.089Z,101977.44
2023-01-28T11:26:38.352Z,101984.06
2023-01-28T11:36:51.571Z,101968.06
2023-01-28T11:47:18.863Z,101959.09
2023-01-28T11:57:29.625Z,101943.00
2023-01-28T12:07:43.884Z,101950.69
2023-01-28T12:17:53.954Z,101930.28
2023-01-28T12:28:12.505Z,101894.56
2023-01-28T12:38:36.701Z,101907.50
2023-01-28T12:48:45.461Z,101858.69
2023-01-28T12:58:53.810Z,101809.31
2023-01-28T13:09:14.620Z,101797.94
2023-01-28T13:19:20.129Z,101847.06
2023-01-28T13:29:32.891Z,101832.72
2023-01-28T13:39:37.203Z,101838.13
2023-01-28T13:49:42.694Z,101871.88
2023-01-28T14:00:03.005Z,101870.00
2023-01-28T14:10:35.089Z,101884.16
2023-01-28T14:20:44.975Z,101864.69
2023-01-28T14:30:54.749Z,101848.13
2023-01-28T14:41:01.015Z,101807.75
2023-01-28T14:51:44.099Z,101814.41
2023-01-28T15:01:48.068Z,101813.28
2023-01-28T15:11:53.956Z,101817.81
2023-01-28T15:21:58.059Z,101848.09
2023-01-28T15:32:01.282Z,101854.13
2023-01-28T15:42:06.158Z,101870.31
2023-01-28T15:52:08.969Z,101883.63
2023-01-28T16:02:22.053Z,101879.66
2023-01-28T16:12:27.238Z,101901.31
2023-01-28T16:22:38.304Z,101922.28
2023-01-28T16:32:42.576Z,101932.22
2023-01-28T16:42:45.992Z,101945.03
2023-01-28T16:52:50.327Z,101923.25
2023-01-28T17:02:54.015Z,101917.38
2023-01-28T17:12:56.324Z,101907.94
2023-01-28T17:22:59.449Z,101907.94
2023-01-28T17:33:01.640Z,101910.34
2023-01-28T17:43:04.855Z,101925.72
2023-01-28T17:53:06.974Z,101958.22
2023-01-28T18:03:12.414Z,101954.88
2023-01-28T18:13:14.744Z,101971.84
2023-01-28T18:23:16.924Z,101958.47
2023-01-28T18:33:19.995Z,101966.56
2023-01-28T18:43:22.318Z,101977.75
2023-01-28T18:53:26.133Z,101989.91
2023-01-28T19:03:28.365Z,101981.78
2023-01-28T19:13:31.887Z,101989.91
2023-01-28T19:23:49.301Z,101998.63
2023-01-28T19:33:58.647Z,101995.66
2023-01-28T19:44:00.946Z,101995.44
2023-01-28T19:54:03.148Z,102014.81
2023-01-28T20:04:05.572Z,102012.25
2023-01-28T20:14:08.943Z,102012.69
2023-01-28T20:24:12.473Z,102000.78
2023-01-28T20:34:19.577Z,101999.03
2023-01-28T20:44:22.104Z,101973.53
2023-01-28T20:54:25.654Z,101964.63
2023-01-28T21:04:27.927Z,101960.41
2023-01-28T21:14:30.296Z,101952.88
2023-01-28T21:24:32.649Z,101939.53
2023-01-28T21:34:35.026Z,101951.25
2023-01-28T21:44:37.213Z,101958.69
2023-01-28T21:54:39.433Z,101955.72
2023-01-28T22:04:43.911Z,101962.53
2023-01-28T22:14:48.395Z,101968.91
2023-01-28T22:24:50.622Z,101973.28
2023-01-28T22:34:52.962Z,101967.84
2023-01-28T22:44:55.132Z,101973.94
2023-01-28T22:54:57.331Z,101971.28
2023-01-28T23:04:59.591Z,101961.13
2023-01-28T23:15:20.424Z,101948.78
2023-01-28T23:25:23.311Z,101936.53
2023-01-28T23:35:26.067Z,101964.97
2023-01-28T23:45:28.200Z,101938.59
2023-01-28T23:55:30.495Z,101933.28
